Time;durP1;ratioP1;P1;durP2;ratioP2;P2;SDS_P1;SDS_P2;PMS_P1;PMS_P2;Temp;Humidity;BMP_temperature;BMP_pressure;BME280_temperature;BME280_humidity;BME280_pressure;Samples;Min_cycle;Max_cycle;Signal;HPM_P1;HPM_P2
2021/04/12 00:00:38;;;;;;;4.50;4.13;;;4.50;99.90;;;;;;5006951;28;20456;-73
2021/04/12 00:03:19;;;;;;;4.10;3.70;;;4.40;99.90;;;;;;5006082;28;20756;-73
2021/04/12 00:06:10;;;;;;;3.63;3.37;;;4.40;99.90;;;;;;5009174;28;20895;-73
2021/04/12 00:09:01;;;;;;;3.30;3.10;;;4.30;99.90;;;;;;5001871;28;20525;-73
2021/04/12 00:11:54;;;;;;;4.70;4.40;;;4.30;99.90;;;;;;5007856;28;20503;-73
2021/04/12 00:14:37;;;;;;;4.40;4.10;;;4.20;99.90;;;;;;5003024;28;20475;-73
2021/04/12 00:17:20;;;;;;;3.80;3.60;;;4.20;99.90;;;;;;5004980;28;20448;-73
2021/04/12 00:20:00;;;;;;;5.30;4.90;;;4.10;99.90;;;;;;5000963;28;20417;-73
2021/04/12 00:22:28;;;;;;;4.97;4.53;;;3.90;99.90;;;;;;5002625;28;20419;-73
2021/04/12 00:25:03;;;;;;;6.87;4.70;;;3.90;99.90;;;;;;5003515;28;20755;-73
2021/04/12 00:27:37;;;;;;;5.83;5.20;;;3.90;99.90;;;;;;5004771;28;20946;-73
2021/04/12 00:30:37;;;;;;;5.67;4.73;;;3.90;99.90;;;;;;5001664;28;20432;-73
2021/04/12 00:33:27;;;;;;;6.70;5.30;;;3.80;99.90;;;;;;5005568;28;20399;-73
2021/04/12 00:35:59;;;;;;;4.90;4.50;;;3.80;99.90;;;;;;5008893;28;20826;-73
2021/04/12 00:38:47;;;;;;;6.50;5.63;;;3.90;99.90;;;;;;5002234;28;20448;-73
2021/04/12 00:41:31;;;;;;;5.90;5.40;;;3.70;99.90;;;;;;5004770;28;20888;-73
2021/04/12 00:44:06;;;;;;;6.27;5.70;;;3.70;99.90;;;;;;5002650;28;20738;-73
2021/04/12 00:46:55;;;;;;;6.00;5.40;;;3.70;99.90;;;;;;5000907;28;20464;-73
2021/04/12 00:49:29;;;;;;;6.07;5.57;;;3.70;99.90;;;;;;5008377;28;20870;-74
2021/04/12 00:52:15;;;;;;;5.53;4.93;;;3.70;99.90;;;;;;4985118;28;20410;-73
2021/04/12 00:54:58;;;;;;;5.67;5.10;;;3.70;99.90;;;;;;5005524;28;20738;-72
2021/04/12 00:57:48;;;;;;;6.63;5.83;;;3.60;99.90;;;;;;5006809;28;20508;-73
2021/04/12 01:00:22;;;;;;;5.40;5.00;;;3.70;99.90;;;;;;5007671;28;20508;-73
2021/04/12 01:02:52;;;;;;;7.00;5.93;;;3.60;99.90;;;;;;5005117;28;20393;-73
2021/04/12 01:05:44;;;;;;;6.00;5.50;;;3.60;99.90;;;;;;5005001;28;20425;-73
2021/04/12 01:08:41;;;;;;;6.10;5.50;;;3.60;99.90;;;;;;5005132;28;20458;-73
2021/04/12 01:11:41;;;;;;;5.70;5.17;;;3.50;99.90;;;;;;5008714;28;20787;-73
2021/04/12 01:14:25;;;;;;;7.40;6.30;;;3.40;99.90;;;;;;5004505;28;20512;-73
2021/04/12 01:17:09;;;;;;;6.77;6.13;;;3.30;99.90;;;;;;5008336;28;20934;-72
2021/04/12 01:19:53;;;;;;;8.03;6.97;;;3.30;99.90;;;;;;5004093;28;20439;-73
2021/04/12 01:22:37;;;;;;;5.83;5.33;;;3.30;99.90;;;;;;5003429;28;20426;-73
2021/04/12 01:25:40;;;;;;;7.07;6.37;;;3.30;99.90;;;;;;5008795;28;20807;-73
2021/04/12 01:28:47;;;;;;;9.10;6.30;;;3.30;99.90;;;;;;5013431;28;20830;-73
2021/04/12 01:31:31;;;;;;;11.10;6.30;;;3.20;99.90;;;;;;4943343;28;20524;-72
2021/04/12 01:34:27;;;;;;;6.20;5.60;;;3.20;99.90;;;;;;5013387;28;20904;-75
2021/04/12 01:37:10;;;;;;;7.97;6.03;;;3.20;99.90;;;;;;5012732;28;20433;-73
2021/04/12 01:39:58;;;;;;;8.17;6.83;;;3.10;99.90;;;;;;5012132;28;20447;-73
2021/04/12 01:42:36;;;;;;;7.53;6.57;;;3.20;99.90;;;;;;5011649;28;20514;-73
2021/04/12 01:45:11;;;;;;;8.40;6.43;;;3.20;99.90;;;;;;4994557;28;20400;-74
2021/04/12 01:47:58;;;;;;;8.60;7.30;;;3.20;99.90;;;;;;5012732;28;20509;-73
2021/04/12 01:51:07;;;;;;;8.13;7.30;;;3.20;99.90;;;;;;5012367;28;20495;-75
2021/04/12 01:53:51;;;;;;;9.07;7.33;;;3.20;99.90;;;;;;5002812;28;20905;-75
2021/04/12 01:56:51;;;;;;;8.10;6.90;;;3.10;99.90;;;;;;5007488;28;20446;-75
2021/04/12 01:59:49;;;;;;;7.63;6.57;;;3.10;99.90;;;;;;4971030;28;20458;-75
2021/04/12 02:02:32;;;;;;;9.10;7.80;;;3.00;99.90;;;;;;5006727;28;20544;-75
2021/04/12 02:05:00;;;;;;;7.00;6.30;;;3.10;99.90;;;;;;5002589;28;20489;-75
2021/04/12 02:07:59;;;;;;;9.00;6.90;;;3.10;99.90;;;;;;5001156;28;20501;-75
2021/04/12 02:10:42;;;;;;;8.20;6.67;;;3.10;99.90;;;;;;5007423;28;20497;-75
2021/04/12 02:13:29;;;;;;;8.23;6.60;;;3.10;99.90;;;;;;5011108;28;20410;-75
2021/04/12 02:16:21;;;;;;;7.43;6.50;;;3.10;99.90;;;;;;4992132;28;20425;-75
2021/04/12 02:19:07;;;;;;;7.07;6.40;;;3.10;99.90;;;;;;5010336;28;20434;-76
2021/04/12 02:21:59;;;;;;;6.70;5.90;;;3.00;99.90;;;;;;5006936;28;20476;-75
2021/04/12 02:24:37;;;;;;;6.97;6.27;;;3.00;99.90;;;;;;5005461;28;20405;-75
2021/04/12 02:27:02;;;;;;;7.67;6.77;;;2.90;99.90;;;;;;5004043;28;20908;-75
2021/04/12 02:29:41;;;;;;;10.27;7.53;;;2.90;99.90;;;;;;5005705;28;20539;-75
2021/04/12 02:32:21;;;;;;;9.80;7.10;;;2.90;99.90;;;;;;5003591;28;20191;-75
2021/04/12 02:35:18;;;;;;;12.03;8.40;;;2.90;99.90;;;;;;5010121;28;20470;-75
2021/04/12 02:38:01;;;;;;;12.07;9.33;;;2.90;99.90;;;;;;5010499;28;20437;-75
2021/04/12 02:40:45;;;;;;;10.70;8.60;;;2.90;99.90;;;;;;5005625;28;20422;-75
2021/04/12 02:43:36;;;;;;;12.43;8.90;;;3.00;99.90;;;;;;4997311;28;20437;-76
2021/04/12 02:46:16;;;;;;;11.17;9.40;;;3.00;99.90;;;;;;5006119;28;20447;-76
2021/04/12 02:48:58;;;;;;;10.40;7.67;;;3.00;99.90;;;;;;4993000;28;20452;-76
2021/04/12 02:52:02;;;;;;;9.80;8.50;;;2.90;99.90;;;;;;5007514;28;20418;-75
2021/04/12 02:54:39;;;;;;;10.63;8.40;;;3.00;99.90;;;;;;4995802;28;20429;-75
2021/04/12 02:57:25;;;;;;;8.80;7.90;;;3.00;99.90;;;;;;5006713;28;20435;-75
2021/04/12 03:00:15;;;;;;;13.27;7.50;;;3.00;99.90;;;;;;5009950;28;20436;-75
2021/04/12 03:03:12;;;;;;;8.00;7.20;;;3.00;99.90;;;;;;5010604;28;20420;-75
2021/04/12 03:05:57;;;;;;;9.17;7.70;;;3.10;99.90;;;;;;5007278;28;20476;-75
2021/04/12 03:08:26;;;;;;;8.37;6.63;;;3.00;99.90;;;;;;5008672;28;20456;-75
2021/04/12 03:11:06;;;;;;;9.10;7.20;;;3.00;99.90;;;;;;5003484;28;20424;-75
2021/04/12 03:14:03;;;;;;;6.80;6.20;;;3.00;99.90;;;;;;5005809;28;20498;-75
2021/04/12 03:16:59;;;;;;;6.10;5.30;;;3.00;99.90;;;;;;4992180;28;20466;-75
2021/04/12 03:19:33;;;;;;;8.53;7.27;;;2.90;99.90;;;;;;5008507;28;20441;-75
2021/04/12 03:22:20;;;;;;;8.37;7.03;;;2.90;99.90;;;;;;5002997;28;20742;-75
2021/04/12 03:25:04;;;;;;;7.40;6.37;;;3.00;99.90;;;;;;5009859;28;20425;-75
2021/04/12 03:27:59;;;;;;;9.03;6.70;;;3.00;99.90;;;;;;5001441;28;20471;-75
2021/04/12 03:31:05;;;;;;;6.97;6.10;;;3.00;99.90;;;;;;5008096;28;20421;-75
2021/04/12 03:33:34;;;;;;;10.00;6.73;;;3.00;99.90;;;;;;4970321;28;20414;-75
2021/04/12 03:36:35;;;;;;;9.13;6.60;;;3.00;99.90;;;;;;5003700;28;20419;-75
2021/04/12 03:39:17;;;;;;;7.20;6.50;;;3.00;99.90;;;;;;4941459;28;20628;-75
2021/04/12 03:41:54;;;;;;;8.70;7.17;;;3.00;99.90;;;;;;5006289;28;20478;-75
2021/04/12 03:44:26;;;;;;;9.53;7.20;;;3.00;99.90;;;;;;5007158;28;20469;-75
2021/04/12 03:46:52;;;;;;;10.73;7.37;;;2.90;99.90;;;;;;5004223;28;20498;-75
2021/04/12 03:49:52;;;;;;;9.77;8.10;;;2.90;99.90;;;;;;5005371;28;20450;-75
2021/04/12 03:52:59;;;;;;;10.07;8.40;;;2.90;99.90;;;;;;5009963;28;20214;-74
2021/04/12 03:55:40;;;;;;;13.73;8.00;;;2.90;99.90;;;;;;5004630;28;20572;-75
2021/04/12 03:58:27;;;;;;;13.70;9.13;;;3.00;99.90;;;;;;5002107;28;20435;-74
2021/04/12 04:01:10;;;;;;;12.70;9.93;;;3.00;99.90;;;;;;5008300;28;20920;-74
2021/04/12 04:03:45;;;;;;;10.57;8.73;;;2.90;99.90;;;;;;5009575;28;20525;-74
2021/04/12 04:06:33;;;;;;;14.03;10.13;;;3.00;99.90;;;;;;5009990;28;20404;-75
2021/04/12 04:09:28;;;;;;;12.53;9.37;;;2.90;99.90;;;;;;5002923;28;21024;-75
2021/04/12 04:12:12;;;;;;;15.23;10.23;;;2.90;99.90;;;;;;5007417;28;20403;-74
2021/04/12 04:15:12;;;;;;;20.03;10.83;;;3.00;99.90;;;;;;5005124;28;20405;-74
2021/04/12 04:17:59;;;;;;;15.63;10.50;;;3.00;99.90;;;;;;5005398;28;20447;-75
2021/04/12 04:20:25;;;;;;;12.43;10.07;;;2.90;99.90;;;;;;5009430;28;20466;-74
2021/04/12 04:23:00;;;;;;;14.20;9.37;;;3.00;99.90;;;;;;5000090;28;20457;-75
2021/04/12 04:25:50;;;;;;;15.33;11.87;;;2.90;99.90;;;;;;4996899;28;20180;-74
2021/04/12 04:28:45;;;;;;;15.37;10.53;;;2.90;99.90;;;;;;4997159;28;21030;-73
2021/04/12 04:31:54;;;;;;;16.67;10.17;;;2.80;99.90;;;;;;5009727;28;20437;-73
2021/04/12 04:34:34;;;;;;;12.40;8.77;;;2.80;99.90;;;;;;4994224;28;20832;-74
2021/04/12 04:37:08;;;;;;;12.47;9.67;;;2.80;99.90;;;;;;5005115;28;20699;-73
2021/04/12 04:39:49;;;;;;;11.00;8.33;;;2.80;99.90;;;;;;5014194;28;20435;-71
2021/04/12 04:42:39;;;;;;;11.50;9.50;;;2.80;99.90;;;;;;5014706;28;20421;-74
2021/04/12 04:46:04;;;;;;;15.40;8.20;;;2.90;99.90;;;;;;5014408;28;20402;-71
2021/04/12 04:48:56;;;;;;;12.00;7.40;;;2.80;99.90;;;;;;4920087;29;20560;-71
2021/04/12 04:51:43;;;;;;;8.83;6.73;;;2.70;99.90;;;;;;4925484;29;20586;-73
2021/04/12 04:54:35;;;;;;;7.93;6.80;;;2.70;99.90;;;;;;4989165;28;21055;-71
2021/04/12 04:57:28;;;;;;;10.43;7.90;;;2.70;99.90;;;;;;4973553;28;20888;-73
2021/04/12 05:00:17;;;;;;;9.10;7.60;;;2.60;99.90;;;;;;5009017;28;20503;-72
2021/04/12 05:02:45;;;;;;;12.53;9.47;;;2.60;99.90;;;;;;5000727;28;20449;-72
2021/04/12 05:05:28;;;;;;;15.80;9.90;;;2.60;99.90;;;;;;5008768;28;20488;-72
2021/04/12 05:08:32;;;;;;;12.73;9.10;;;2.60;99.90;;;;;;5004324;28;20476;-72
2021/04/12 05:11:31;;;;;;;11.70;9.00;;;2.50;99.90;;;;;;4995812;28;20911;-72
2021/04/12 05:14:11;;;;;;;14.20;9.47;;;2.50;99.90;;;;;;5010270;28;20995;-72
2021/04/12 05:17:14;;;;;;;16.13;10.83;;;2.40;99.90;;;;;;5001172;28;20431;-72
2021/04/12 05:20:04;;;;;;;12.83;8.80;;;2.30;99.90;;;;;;5004771;28;20452;-72
2021/04/12 05:22:51;;;;;;;12.97;9.97;;;2.30;99.90;;;;;;5000777;28;20855;-72
2021/04/12 05:25:25;;;;;;;15.57;10.50;;;2.30;99.90;;;;;;4996595;28;20515;-72
2021/04/12 05:28:27;;;;;;;17.07;10.83;;;2.20;99.90;;;;;;4998080;28;20467;-72
2021/04/12 05:31:34;;;;;;;16.50;11.50;;;2.20;99.90;;;;;;5012503;28;20805;-72
2021/04/12 05:34:20;;;;;;;16.97;11.10;;;2.20;99.90;;;;;;5003202;28;20454;-72
2021/04/12 05:37:18;;;;;;;19.23;11.77;;;2.20;99.90;;;;;;4999202;28;20422;-72
2021/04/12 05:40:22;;;;;;;17.80;13.30;;;2.20;99.90;;;;;;5006395;28;20449;-72
2021/04/12 05:43:12;;;;;;;16.17;11.40;;;2.30;99.90;;;;;;5007225;28;20434;-72
2021/04/12 05:46:15;;;;;;;22.73;12.43;;;2.30;99.90;;;;;;4995630;28;20947;-72
2021/04/12 05:49:05;;;;;;;23.37;13.80;;;2.30;99.90;;;;;;5010406;28;20449;-72
2021/04/12 05:51:58;;;;;;;20.53;13.27;;;2.40;99.90;;;;;;5000362;28;20415;-72
2021/04/12 05:54:40;;;;;;;19.50;12.90;;;2.50;99.90;;;;;;5003851;28;20431;-72
2021/04/12 05:57:18;;;;;;;18.77;12.50;;;2.60;99.90;;;;;;4999425;28;20417;-72
2021/04/12 05:59:44;;;;;;;19.70;13.20;;;2.70;99.90;;;;;;5011458;28;20432;-72
2021/04/12 06:02:44;;;;;;;18.40;13.13;;;2.70;99.90;;;;;;5008208;28;20412;-72
2021/04/12 06:05:37;;;;;;;18.73;12.43;;;2.70;99.90;;;;;;5012057;28;20172;-72
2021/04/12 06:08:40;;;;;;;16.20;11.30;;;2.80;99.90;;;;;;5000458;28;20467;-72
2021/04/12 06:11:29;;;;;;;19.83;13.33;;;2.80;99.90;;;;;;5007747;28;20445;-71
2021/04/12 06:14:03;;;;;;;21.07;12.93;;;2.90;99.90;;;;;;5006001;28;20413;-72
2021/04/12 06:17:06;;;;;;;15.80;12.80;;;2.90;99.90;;;;;;4999863;28;20450;-72
2021/04/12 06:20:04;;;;;;;23.20;13.50;;;3.00;99.90;;;;;;4996468;28;20446;-72
2021/04/12 06:22:38;;;;;;;17.90;12.70;;;3.00;99.90;;;;;;5003610;28;20426;-74
2021/04/12 06:25:51;;;;;;;20.00;13.77;;;3.20;99.90;;;;;;4995439;28;20513;-74
2021/04/12 06:28:26;;;;;;;16.57;12.10;;;3.30;99.90;;;;;;4932190;28;20491;-74
2021/04/12 06:31:03;;;;;;;18.33;13.20;;;3.40;99.90;;;;;;4974809;28;20418;-74
2021/04/12 06:33:54;;;;;;;16.33;12.13;;;3.50;99.90;;;;;;4992246;28;20953;-74
2021/04/12 06:36:49;;;;;;;16.27;11.83;;;3.60;99.90;;;;;;4992188;28;20502;-74
2021/04/12 06:39:33;;;;;;;14.97;11.53;;;3.70;99.90;;;;;;4958623;28;20465;-74
2021/04/12 06:42:05;;;;;;;12.00;10.50;;;3.70;99.90;;;;;;4992018;28;20412;-74
2021/04/12 06:44:50;;;;;;;15.87;12.17;;;3.70;99.90;;;;;;4992129;28;20424;-74
2021/04/12 06:47:46;;;;;;;18.63;12.70;;;3.70;99.90;;;;;;4991883;28;20456;-74
2021/04/12 06:50:47;;;;;;;15.07;11.17;;;3.70;99.90;;;;;;4974539;28;20461;-74
2021/04/12 06:53:33;;;;;;;16.03;11.33;;;3.70;99.90;;;;;;4992014;28;20385;-73
2021/04/12 06:55:59;;;;;;;16.50;11.40;;;3.70;99.90;;;;;;4974422;28;20396;-73
2021/04/12 06:59:00;;;;;;;16.13;11.10;;;3.70;99.90;;;;;;4994403;28;20414;-75
2021/04/12 07:02:07;;;;;;;16.40;10.23;;;3.70;99.90;;;;;;4995431;28;20271;-75
2021/04/12 07:04:52;;;;;;;12.57;9.63;;;3.70;99.90;;;;;;4996485;28;20402;-74
2021/04/12 07:07:54;;;;;;;11.90;10.10;;;3.70;99.90;;;;;;4995425;28;20456;-73
2021/04/12 07:10:39;;;;;;;14.17;10.53;;;3.60;99.90;;;;;;4995484;28;20824;-74
2021/04/12 07:13:04;;;;;;;18.60;11.50;;;3.70;99.90;;;;;;4982296;28;20407;-75
2021/04/12 07:16:09;;;;;;;10.80;9.53;;;3.70;99.90;;;;;;5004114;28;20443;-74
2021/04/12 07:19:09;;;;;;;12.93;10.23;;;3.70;99.90;;;;;;4994377;28;20220;-75
2021/04/12 07:21:45;;;;;;;15.60;11.57;;;3.70;99.90;;;;;;5012153;28;20766;-75
2021/04/12 07:24:50;;;;;;;14.10;11.57;;;3.80;99.90;;;;;;5015240;28;20797;-74
2021/04/12 07:27:38;;;;;;;19.40;12.87;;;3.80;99.90;;;;;;5014841;28;20893;-74
2021/04/12 07:30:44;;;;;;;18.90;12.40;;;3.80;99.90;;;;;;5014583;28;20427;-74
2021/04/12 07:33:28;;;;;;;17.60;12.50;;;3.80;99.90;;;;;;4950612;28;20835;-74
2021/04/12 07:36:25;;;;;;;21.37;13.27;;;3.80;99.90;;;;;;5014685;28;20968;-74
2021/04/12 07:39:13;;;;;;;20.40;12.67;;;3.80;99.90;;;;;;5014311;28;20450;-75
2021/04/12 07:42:23;;;;;;;18.17;13.20;;;3.90;99.90;;;;;;5014292;28;20442;-74
2021/04/12 07:45:11;;;;;;;31.17;14.83;;;3.90;99.90;;;;;;5014562;28;20401;-74
2021/04/12 07:48:05;;;;;;;148.27;27.33;;;4.00;99.90;;;;;;5014293;28;20451;-75
2021/04/12 07:51:14;;;;;;;171.10;29.30;;;4.00;99.90;;;;;;5014384;28;20431;-74
2021/04/12 07:54:16;;;;;;;19.17;12.83;;;4.10;99.90;;;;;;5014392;28;20414;-74
2021/04/12 07:56:56;;;;;;;39.33;16.07;;;4.20;99.90;;;;;;5015397;28;20903;-74
2021/04/12 07:59:37;;;;;;;32.57;16.00;;;4.30;99.90;;;;;;4997643;28;20437;-73
2021/04/12 08:02:39;;;;;;;20.33;13.80;;;4.30;99.90;;;;;;5000432;28;20834;-73
2021/04/12 08:05:37;;;;;;;28.20;15.10;;;4.40;99.90;;;;;;5014653;28;20492;-72
2021/04/12 08:08:40;;;;;;;58.07;18.77;;;4.30;99.90;;;;;;4971664;28;20481;-72
2021/04/12 08:11:38;;;;;;;50.40;18.70;;;4.30;99.90;;;;;;5014093;28;20490;-72
2021/04/12 08:14:18;;;;;;;47.17;15.60;;;4.40;99.90;;;;;;5013895;28;20980;-72
2021/04/12 08:17:16;;;;;;;28.03;15.70;;;4.40;99.90;;;;;;5014224;28;20461;-72
2021/04/12 08:19:47;;;;;;;22.80;14.73;;;4.50;99.90;;;;;;5009328;28;20470;-71
2021/04/12 08:22:24;;;;;;;26.30;15.77;;;4.60;99.90;;;;;;5013913;28;20880;-72
2021/04/12 08:25:08;;;;;;;22.70;15.43;;;4.80;99.90;;;;;;5014093;28;20787;-72
2021/04/12 08:27:55;;;;;;;19.67;13.93;;;4.90;99.90;;;;;;4996356;28;20518;-71
2021/04/12 08:30:39;;;;;;;20.10;15.27;;;4.90;99.90;;;;;;4996645;28;20440;-72
2021/04/12 08:33:13;;;;;;;21.03;13.60;;;4.90;99.90;;;;;;5014642;28;20411;-72
2021/04/12 08:36:18;;;;;;;19.97;12.30;;;4.90;99.90;;;;;;5024914;23;20553;-73
2021/04/12 08:39:09;;;;;;;17.47;12.93;;;4.90;99.90;;;;;;5010851;28;20421;-72
2021/04/12 08:42:07;;;;;;;16.20;13.00;;;5.00;99.90;;;;;;5011972;28;20469;-74
2021/04/12 08:44:51;;;;;;;17.40;13.00;;;5.20;99.90;;;;;;4992410;28;20416;-72
2021/04/12 08:47:26;;;;;;;18.40;12.73;;;5.30;99.90;;;;;;4989861;28;20477;-72
2021/04/12 08:50:23;;;;;;;16.47;11.77;;;5.40;99.90;;;;;;4992642;28;20422;-74
2021/04/12 08:53:26;;;;;;;14.43;10.90;;;5.30;99.90;;;;;;4982200;28;20489;-72
2021/04/12 08:56:20;;;;;;;14.90;11.70;;;5.30;99.90;;;;;;4990383;28;20524;-73
2021/04/12 08:59:09;;;;;;;16.07;11.27;;;5.20;99.90;;;;;;4989113;28;20445;-72
2021/04/12 09:02:16;;;;;;;18.93;12.60;;;5.20;99.90;;;;;;4992165;28;20431;-73
2021/04/12 09:05:30;;;;;;;18.70;11.33;;;5.30;99.90;;;;;;4988565;28;20497;-73
2021/04/12 09:08:09;;;;;;;15.33;11.60;;;5.30;99.90;;;;;;4990182;28;20464;-72
2021/04/12 09:11:02;;;;;;;14.67;11.90;;;5.30;99.90;;;;;;4991969;28;20467;-72
2021/04/12 09:13:50;;;;;;;16.60;11.80;;;5.40;99.90;;;;;;4990685;28;20591;-72
2021/04/12 09:16:43;;;;;;;12.23;10.03;;;5.40;99.90;;;;;;4989155;28;20421;-72
2021/04/12 09:19:38;;;;;;;20.60;11.30;;;5.40;99.90;;;;;;4986796;28;20428;-73
2021/04/12 09:22:18;;;;;;;12.70;10.83;;;5.50;99.90;;;;;;4990832;28;20425;-73
2021/04/12 09:25:17;;;;;;;24.53;10.40;;;5.70;99.90;;;;;;4988770;28;20508;-73
2021/04/12 09:28:19;;;;;;;12.30;9.00;;;5.90;99.90;;;;;;4978970;28;20462;-72
2021/04/12 09:30:54;;;;;;;12.37;10.37;;;5.90;99.90;;;;;;4988691;28;20437;-73
2021/04/12 09:33:40;;;;;;;11.70;10.30;;;6.00;99.90;;;;;;4991530;28;20532;-73
2021/04/12 09:36:10;;;;;;;14.00;8.23;;;6.30;99.90;;;;;;4991060;28;20434;-74
2021/04/12 09:38:47;;;;;;;12.73;9.87;;;6.60;99.90;;;;;;4991517;28;20782;-73
2021/04/12 09:41:37;;;;;;;13.17;9.83;;;6.60;99.90;;;;;;4988099;28;20422;-74
2021/04/12 09:44:30;;;;;;;16.73;8.83;;;7.00;99.90;;;;;;4991285;28;20442;-74
2021/04/12 09:47:18;;;;;;;8.73;7.80;;;7.10;99.90;;;;;;4989418;28;20460;-74
2021/04/12 09:50:09;;;;;;;9.53;7.50;;;7.00;99.90;;;;;;4988210;28;20442;-73
2021/04/12 09:52:41;;;;;;;8.50;6.90;;;7.00;99.90;;;;;;4991121;28;20439;-73
2021/04/12 09:55:19;;;;;;;8.00;7.20;;;7.10;99.90;;;;;;4987505;28;20423;-74
2021/04/12 09:58:15;;;;;;;8.70;7.57;;;7.00;99.90;;;;;;4988234;28;20426;-73
2021/04/12 10:00:58;;;;;;;9.93;6.67;;;7.00;99.90;;;;;;4981825;28;20438;-74
2021/04/12 10:03:50;;;;;;;7.10;6.40;;;6.80;99.90;;;;;;4989373;28;20517;-73
2021/04/12 10:06:35;;;;;;;14.10;6.40;;;6.80;99.90;;;;;;4988553;28;20425;-73
2021/04/12 10:09:16;;;;;;;13.20;7.33;;;6.90;99.90;;;;;;4991220;28;20801;-74
2021/04/12 10:11:53;;;;;;;8.93;5.13;;;7.20;99.90;;;;;;4987847;28;20417;-74
2021/04/12 10:14:30;;;;;;;5.83;5.17;;;7.40;99.90;;;;;;4988706;28;20455;-74
2021/04/12 10:17:05;;;;;;;5.57;5.03;;;7.30;99.90;;;;;;4991092;28;20432;-74
2021/04/12 10:19:46;;;;;;;5.10;4.60;;;7.40;99.90;;;;;;4991290;28;20437;-75
2021/04/12 10:22:17;;;;;;;6.07;5.00;;;7.70;99.90;;;;;;4987343;28;20948;-74
2021/04/12 10:24:56;;;;;;;5.20;4.60;;;8.00;99.90;;;;;;4987893;28;20552;-74
2021/04/12 10:27:45;;;;;;;4.57;4.17;;;8.10;99.90;;;;;;4990957;28;20559;-74
2021/04/12 10:30:39;;;;;;;7.50;5.80;;;8.20;99.90;;;;;;4987837;28;20451;-74
2021/04/12 10:33:13;;;;;;;5.60;4.53;;;7.70;99.90;;;;;;4992463;28;20970;-74
2021/04/12 10:35:51;;;;;;;5.17;4.67;;;7.70;99.90;;;;;;4991113;28;20436;-73
2021/04/12 10:38:27;;;;;;;6.50;4.47;;;7.70;99.90;;;;;;4985558;28;20436;-73
2021/04/12 10:41:25;;;;;;;5.50;4.83;;;7.80;99.90;;;;;;4994889;28;20788;-74
2021/04/12 10:44:05;;;;;;;13.40;3.90;;;7.90;99.90;;;;;;4992169;28;20440;-74
2021/04/12 10:46:58;;;;;;;10.43;4.00;;;8.20;99.90;;;;;;4994991;28;20429;-74
2021/04/12 10:49:50;;;;;;;11.30;3.80;;;8.50;99.90;;;;;;4992956;28;20791;-74
2021/04/12 10:52:23;;;;;;;4.10;3.70;;;8.80;99.90;;;;;;4991586;28;20429;-73
2021/04/12 10:55:22;;;;;;;5.63;3.70;;;8.70;99.90;;;;;;4994718;28;20408;-74
2021/04/12 10:58:23;;;;;;;5.17;3.67;;;9.00;99.90;;;;;;4977761;28;20428;-75
2021/04/12 11:01:12;;;;;;;3.40;3.17;;;8.80;99.90;;;;;;4991964;28;20413;-74
2021/04/12 11:04:19;;;;;;;3.03;2.70;;;8.80;99.90;;;;;;4990283;28;20450;-74
2021/04/12 11:07:00;;;;;;;5.27;3.30;;;8.90;99.90;;;;;;4920150;29;20441;-74
2021/04/12 11:09:45;;;;;;;5.20;2.43;;;9.00;99.90;;;;;;4987667;28;20430;-75
2021/04/12 11:12:20;;;;;;;3.60;2.50;;;9.20;99.90;;;;;;4990420;28;20499;-74
2021/04/12 11:15:00;;;;;;;4.80;3.00;;;9.20;99.90;;;;;;4991528;28;20434;-74
2021/04/12 11:18:02;;;;;;;5.23;2.90;;;9.20;99.90;;;;;;4994156;28;20928;-71
2021/04/12 11:20:36;;;;;;;2.97;2.77;;;8.70;99.90;;;;;;4993043;28;20470;-72
2021/04/12 11:23:09;;;;;;;3.17;2.97;;;8.60;99.90;;;;;;4984305;28;20445;-73
2021/04/12 11:25:54;;;;;;;4.43;2.93;;;8.40;99.90;;;;;;4994069;28;20511;-72
2021/04/12 11:28:30;;;;;;;5.53;3.03;;;8.30;99.90;;;;;;4993917;28;20469;-74
2021/04/12 11:31:04;;;;;;;3.80;3.43;;;8.30;99.90;;;;;;4993914;28;20424;-73
2021/04/12 11:33:56;;;;;;;2.63;2.43;;;8.60;99.90;;;;;;4993524;28;20440;-73
2021/04/12 11:36:59;;;;;;;2.57;2.37;;;9.00;99.90;;;;;;4991786;28;20439;-73
2021/04/12 11:39:30;;;;;;;2.97;2.70;;;9.10;99.90;;;;;;4992083;28;20429;-74
2021/04/12 11:42:05;;;;;;;2.50;2.30;;;9.10;99.90;;;;;;4993494;28;20426;-73
2021/04/12 11:44:42;;;;;;;3.00;2.80;;;9.10;99.90;;;;;;4994219;28;20451;-74
2021/04/12 11:47:24;;;;;;;5.40;2.57;;;9.30;99.90;;;;;;4989701;28;20557;-73
2021/04/12 11:50:06;;;;;;;5.10;3.20;;;9.40;99.90;;;;;;4991362;28;20427;-73
2021/04/12 11:52:49;;;;;;;4.20;2.80;;;9.60;99.90;;;;;;4993207;28;20475;-73
2021/04/12 11:55:52;;;;;;;3.60;2.33;;;9.60;99.90;;;;;;4990797;28;20465;-73
2021/04/12 11:58:37;;;;;;;4.80;2.27;;;10.00;99.90;;;;;;4983919;28;20427;-73
2021/04/12 12:01:21;;;;;;;3.50;2.03;;;9.70;99.90;;;;;;4993497;28;20412;-73
2021/04/12 12:04:03;;;;;;;1.77;1.67;;;9.70;99.90;;;;;;4990110;28;20974;-73
2021/04/12 12:07:03;;;;;;;2.50;2.33;;;10.00;99.90;;;;;;4993456;28;20417;-73
2021/04/12 12:09:48;;;;;;;2.13;1.97;;;10.10;99.90;;;;;;4991838;28;20445;-73
2021/04/12 12:12:32;;;;;;;2.00;1.80;;;9.90;99.90;;;;;;4989875;28;20829;-72
2021/04/12 12:15:22;;;;;;;5.43;3.13;;;9.60;99.90;;;;;;4993237;28;20420;-72
2021/04/12 12:18:08;;;;;;;2.70;2.20;;;9.10;99.90;;;;;;4990087;28;20422;-74
2021/04/12 12:20:43;;;;;;;3.23;2.23;;;8.60;99.90;;;;;;4992582;28;20482;-71
2021/04/12 12:23:38;;;;;;;2.20;2.00;;;8.40;99.90;;;;;;4986027;28;20957;-73
2021/04/12 12:26:10;;;;;;;2.97;2.03;;;8.30;99.90;;;;;;4988287;28;20453;-73
2021/04/12 12:28:48;;;;;;;1.87;1.70;;;8.50;99.90;;;;;;4988752;28;20851;-73
2021/04/12 12:31:34;;;;;;;2.33;2.13;;;9.00;99.90;;;;;;4984935;28;20959;-73
2021/04/12 12:34:18;;;;;;;1.87;1.70;;;9.40;99.90;;;;;;4984043;28;20807;-73
2021/04/12 12:36:50;;;;;;;2.17;1.80;;;10.00;99.90;;;;;;4987872;28;20482;-73
2021/04/12 12:39:50;;;;;;;3.57;2.43;;;10.30;99.90;;;;;;4989947;28;20955;-73
2021/04/12 12:42:29;;;;;;;2.50;1.90;;;10.10;99.90;;;;;;4983595;28;20421;-74
2021/04/12 12:45:06;;;;;;;2.37;1.20;;;10.00;99.90;;;;;;4992682;28;20461;-71
2021/04/12 12:47:34;;;;;;;2.10;1.80;;;9.80;99.90;;;;;;4982731;28;20474;-71
2021/04/12 12:50:04;;;;;;;4.13;1.70;;;9.60;99.90;;;;;;4988721;28;20432;-73
2021/04/12 12:52:40;;;;;;;3.50;2.03;;;9.70;99.90;;;;;;4990558;28;20448;-72
2021/04/12 12:55:34;;;;;;;2.80;1.60;;;9.80;99.90;;;;;;4988261;28;20420;-72
2021/04/12 12:58:09;;;;;;;1.53;1.43;;;9.90;99.90;;;;;;4990498;28;20780;-72
2021/04/12 13:00:41;;;;;;;5.83;1.50;;;9.80;99.90;;;;;;4990541;28;20427;-72
2021/04/12 13:03:20;;;;;;;2.60;2.30;;;9.80;99.90;;;;;;4991205;28;20852;-72
2021/04/12 13:05:48;;;;;;;2.03;1.73;;;9.80;99.90;;;;;;4987210;28;20413;-72
2021/04/12 13:08:29;;;;;;;2.90;1.60;;;10.10;99.90;;;;;;4990697;28;20465;-72
2021/04/12 13:10:56;;;;;;;1.73;1.63;;;10.40;99.90;;;;;;4992356;28;20420;-72
2021/04/12 13:13:26;;;;;;;2.00;1.57;;;10.30;99.90;;;;;;4987168;28;20807;-73
2021/04/12 13:15:53;;;;;;;3.47;2.20;;;10.30;99.90;;;;;;4992206;28;20791;-72
2021/04/12 13:18:22;;;;;;;2.60;1.70;;;10.40;99.90;;;;;;4992375;28;20436;-72
2021/04/12 13:21:20;;;;;;;3.13;2.30;;;10.20;99.90;;;;;;4992213;28;20418;-72
2021/04/12 13:23:45;;;;;;;5.70;3.57;;;10.20;99.90;;;;;;4988904;28;20779;-72
2021/04/12 13:26:33;;;;;;;6.90;1.87;;;10.10;99.90;;;;;;4992069;28;20429;-72
2021/04/12 13:29:16;;;;;;;3.17;1.50;;;10.30;99.90;;;;;;4990617;28;20197;-72
2021/04/12 13:32:01;;;;;;;6.43;1.87;;;10.00;99.90;;;;;;4988579;28;20420;-71
2021/04/12 13:34:57;;;;;;;2.30;1.90;;;9.90;99.90;;;;;;4990172;28;20483;-72
2021/04/12 13:37:27;;;;;;;2.97;1.80;;;9.60;99.90;;;;;;4989659;28;20408;-72
2021/04/12 13:40:09;;;;;;;2.70;2.27;;;9.50;99.90;;;;;;4991679;28;20425;-72
2021/04/12 13:42:46;;;;;;;1.70;1.60;;;9.50;99.90;;;;;;4991359;28;20459;-72
2021/04/12 13:45:12;;;;;;;2.90;2.00;;;9.60;99.90;;;;;;4988479;28;20928;-73
2021/04/12 13:47:50;;;;;;;2.17;1.90;;;9.60;99.90;;;;;;4987578;28;20487;-73
2021/04/12 13:50:28;;;;;;;2.80;2.20;;;9.40;99.90;;;;;;4984829;28;20956;-72
2021/04/12 13:53:04;;;;;;;4.90;1.87;;;9.20;99.90;;;;;;4983950;28;20796;-71
2021/04/12 13:55:35;;;;;;;2.27;2.07;;;9.00;99.90;;;;;;4991969;28;20427;-72
2021/04/12 13:58:16;;;;;;;2.03;1.77;;;8.80;99.90;;;;;;4991657;28;20432;-72
2021/04/12 14:01:06;;;;;;;2.40;2.20;;;8.60;99.90;;;;;;4991809;28;20455;-71
2021/04/12 14:03:39;;;;;;;2.30;2.10;;;8.40;99.90;;;;;;4990477;28;20453;-72
2021/04/12 14:06:33;;;;;;;3.93;2.60;;;8.30;99.90;;;;;;4991392;28;20502;-72
2021/04/12 14:09:09;;;;;;;4.73;3.00;;;8.20;99.90;;;;;;4969817;28;20466;-71
2021/04/12 14:11:46;;;;;;;3.03;2.13;;;8.10;99.90;;;;;;4991232;28;20452;-71
2021/04/12 14:14:28;;;;;;;2.03;1.83;;;8.00;99.90;;;;;;4987625;28;20448;-72
2021/04/12 14:17:09;;;;;;;4.73;2.47;;;7.90;99.90;;;;;;4989311;28;20454;-72
2021/04/12 14:19:46;;;;;;;3.37;1.87;;;7.90;99.90;;;;;;4991584;28;20453;-72
2021/04/12 14:22:23;;;;;;;5.50;2.40;;;7.90;99.90;;;;;;4988715;28;20420;-73
2021/04/12 14:24:53;;;;;;;3.90;2.37;;;7.90;99.90;;;;;;4989032;28;20809;-72